createdAt,value
2018-07-26T00:02:14.674Z,24.78
2018-07-26T00:04:43.811Z,24.73
2018-07-26T00:07:13.117Z,24.68
2018-07-26T00:09:42.224Z,24.66
2018-07-26T00:12:11.311Z,24.62
2018-07-26T00:14:40.468Z,24.57
2018-07-26T00:17:09.695Z,24.53
2018-07-26T00:19:38.868Z,24.47
2018-07-26T00:22:08.423Z,24.41
2018-07-26T00:24:38.081Z,24.38
2018-07-26T00:27:07.690Z,24.38
2018-07-26T00:29:36.779Z,24.39
2018-07-26T00:32:05.919Z,24.33
2018-07-26T00:34:35.079Z,24.28
2018-07-26T00:37:04.373Z,24.27
2018-07-26T00:39:33.481Z,24.27
2018-07-26T00:42:02.580Z,24.24
2018-07-26T00:44:31.667Z,24.26
2018-07-26T00:47:00.895Z,24.27
2018-07-26T00:49:30.162Z,24.27
2018-07-26T00:51:59.278Z,24.25
2018-07-26T00:54:28.387Z,24.19
2018-07-26T00:56:57.582Z,24.18
2018-07-26T00:59:26.714Z,24.19
2018-07-26T01:01:55.940Z,24.17
2018-07-26T01:04:25.063Z,24.13
2018-07-26T01:06:54.174Z,24.12
2018-07-26T01:09:23.366Z,24.08
2018-07-26T01:11:52.559Z,24.05
2018-07-26T01:14:21.782Z,24.06
2018-07-26T01:16:50.886Z,24.02
2018-07-26T01:19:20.064Z,23.98
2018-07-26T01:21:49.302Z,23.92
2018-07-26T01:24:18.412Z,23.98
2018-07-26T01:26:47.503Z,23.95
2018-07-26T01:29:19.718Z,23.96
2018-07-26T01:31:52.897Z,23.95
2018-07-26T01:34:23.278Z,23.95
2018-07-26T01:36:52.823Z,23.95
2018-07-26T01:39:21.915Z,23.98
2018-07-26T01:41:51.823Z,24.00
2018-07-26T01:44:24.665Z,24.02
2018-07-26T01:46:53.826Z,23.92
2018-07-26T01:49:23.042Z,23.86
2018-07-26T01:51:52.180Z,23.82
2018-07-26T01:54:21.328Z,23.83
2018-07-26T01:56:50.536Z,23.83
2018-07-26T01:59:19.645Z,23.91
2018-07-26T02:01:48.873Z,24.04
2018-07-26T02:04:18.033Z,23.96
2018-07-26T02:06:47.164Z,23.95
2018-07-26T02:09:16.410Z,23.91
2018-07-26T02:11:45.548Z,23.91
2018-07-26T02:14:20.159Z,23.92
2018-07-26T02:16:49.274Z,23.91
2018-07-26T02:19:18.554Z,23.85
2018-07-26T02:21:47.720Z,23.81
2018-07-26T02:24:16.951Z,23.78
2018-07-26T02:26:46.110Z,23.75
2018-07-26T02:29:15.374Z,23.72
2018-07-26T02:31:44.547Z,23.66
2018-07-26T02:34:13.649Z,23.63
2018-07-26T02:36:42.932Z,23.64
2018-07-26T02:39:12.108Z,23.63
2018-07-26T02:41:41.302Z,23.60
2018-07-26T02:44:10.479Z,23.55
2018-07-26T02:46:39.613Z,23.52
2018-07-26T02:49:08.768Z,23.45
2018-07-26T02:51:38.050Z,23.40
2018-07-26T02:54:07.255Z,23.39
2018-07-26T02:56:36.438Z,23.41
2018-07-26T02:59:05.639Z,23.40
2018-07-26T03:01:34.776Z,23.39
2018-07-26T03:04:03.940Z,23.32
2018-07-26T03:06:33.136Z,23.25
2018-07-26T03:09:02.266Z,23.20
2018-07-26T03:11:31.536Z,23.24
2018-07-26T03:14:00.684Z,23.24
2018-07-26T03:16:29.929Z,23.20
2018-07-26T03:18:59.064Z,23.19
2018-07-26T03:21:28.296Z,23.17
2018-07-26T03:23:57.497Z,23.20
2018-07-26T03:26:26.848Z,23.15
2018-07-26T03:28:56.156Z,23.12
2018-07-26T03:31:25.314Z,23.09
2018-07-26T03:33:54.498Z,23.07
2018-07-26T03:36:23.655Z,23.04
2018-07-26T03:38:52.928Z,23.06
2018-07-26T03:41:22.055Z,23.02
2018-07-26T03:43:51.209Z,23.01
2018-07-26T03:46:20.388Z,23.00
2018-07-26T03:48:49.562Z,22.97
2018-07-26T03:51:18.823Z,22.99
2018-07-26T03:53:47.938Z,22.98
2018-07-26T03:56:17.097Z,22.94
2018-07-26T03:58:46.338Z,22.97
2018-07-26T04:01:15.601Z,22.99
2018-07-26T04:03:44.582Z,22.99
2018-07-26T04:06:13.774Z,22.97
2018-07-26T04:08:42.913Z,22.98
2018-07-26T04:11:12.217Z,23.05
2018-07-26T04:13:41.413Z,23.04
2018-07-26T04:16:10.566Z,23.07
2018-07-26T04:18:39.778Z,23.06
2018-07-26T04:21:09.009Z,23.05
2018-07-26T04:23:38.154Z,23.09
2018-07-26T04:26:07.324Z,23.09
2018-07-26T04:28:36.652Z,23.10
2018-07-26T04:31:05.880Z,23.15
2018-07-26T04:33:35.046Z,23.18
2018-07-26T04:36:04.319Z,23.27
2018-07-26T04:38:33.450Z,23.32
2018-07-26T04:41:02.713Z,23.42
2018-07-26T04:43:31.913Z,23.60
2018-07-26T04:46:01.052Z,23.71
2018-07-26T04:48:30.312Z,23.91
2018-07-26T04:50:59.438Z,23.98
2018-07-26T04:53:28.792Z,24.05
2018-07-26T04:55:57.928Z,24.15
2018-07-26T04:58:27.380Z,24.22
2018-07-26T05:00:56.724Z,24.31
2018-07-26T05:03:26.839Z,24.45
2018-07-26T05:05:56.043Z,24.63
2018-07-26T05:08:25.234Z,24.78
2018-07-26T05:10:54.367Z,24.82
2018-07-26T05:13:23.526Z,25.01
2018-07-26T05:15:52.688Z,24.97
2018-07-26T05:18:21.936Z,25.14
2018-07-26T05:20:51.091Z,25.32
2018-07-26T05:23:20.371Z,25.33
2018-07-26T05:25:49.519Z,25.56
2018-07-26T05:28:18.735Z,25.51
2018-07-26T05:30:47.916Z,25.73
2018-07-26T05:33:17.135Z,25.75
2018-07-26T05:35:46.295Z,25.82
2018-07-26T05:38:17.693Z,25.94
2018-07-26T05:40:46.887Z,25.96
2018-07-26T05:43:16.186Z,25.81
2018-07-26T05:45:45.444Z,25.87
2018-07-26T05:48:14.615Z,25.83
2018-07-26T05:50:43.754Z,25.66
2018-07-26T05:53:12.935Z,25.92
2018-07-26T05:55:42.147Z,25.87
2018-07-26T05:58:11.304Z,26.07
2018-07-26T06:00:40.442Z,26.38
2018-07-26T06:03:09.737Z,26.73
2018-07-26T06:05:38.961Z,26.61
2018-07-26T06:08:08.178Z,26.74
2018-07-26T06:10:37.367Z,26.80
2018-07-26T06:13:06.791Z,26.99
2018-07-26T06:15:36.062Z,26.66
2018-07-26T06:18:05.243Z,26.83
2018-07-26T06:20:34.521Z,27.26
2018-07-26T06:23:03.655Z,27.05
2018-07-26T06:25:32.908Z,27.04
2018-07-26T06:28:02.304Z,27.18
2018-07-26T06:30:31.433Z,26.61
2018-07-26T06:33:00.706Z,26.82
2018-07-26T06:35:29.835Z,27.26
2018-07-26T06:37:59.124Z,27.25
2018-07-26T06:40:28.292Z,27.27
2018-07-26T06:42:59.344Z,27.31
2018-07-26T06:45:28.608Z,27.31
2018-07-26T06:47:57.710Z,27.43
2018-07-26T06:50:26.904Z,26.95
2018-07-26T06:52:56.127Z,27.01
2018-07-26T06:55:25.286Z,27.35
2018-07-26T06:57:54.411Z,27.53
2018-07-26T07:00:23.754Z,27.75
2018-07-26T07:02:53.073Z,27.93
2018-07-26T07:05:22.290Z,28.06
2018-07-26T07:07:51.246Z,28.16
2018-07-26T07:10:20.458Z,28.39
2018-07-26T07:12:49.615Z,28.54
2018-07-26T07:15:19.120Z,28.89
2018-07-26T07:17:48.324Z,29.05
2018-07-26T07:20:17.502Z,29.43
2018-07-26T07:22:46.756Z,29.83
2018-07-26T07:25:16.021Z,30.13
2018-07-26T07:27:45.269Z,30.38
2018-07-26T07:30:18.074Z,30.37
2018-07-26T07:32:47.215Z,30.32
2018-07-26T07:35:16.482Z,30.33
2018-07-26T07:37:45.718Z,30.45
2018-07-26T07:40:14.988Z,29.58
2018-07-26T07:42:44.099Z,29.66
2018-07-26T07:45:13.420Z,29.82
2018-07-26T07:47:42.674Z,30.09
2018-07-26T07:50:11.867Z,30.71
2018-07-26T07:52:41.140Z,31.52
2018-07-26T07:55:11.438Z,32.06
2018-07-26T07:57:40.690Z,32.59
2018-07-26T08:00:10.436Z,33.17
2018-07-26T08:02:39.599Z,33.25
2018-07-26T08:05:08.726Z,33.75
2018-07-26T08:07:37.950Z,34.27
2018-07-26T08:10:09.682Z,34.90
2018-07-26T08:12:39.118Z,35.06
2018-07-26T08:15:09.696Z,34.31
2018-07-26T08:17:38.926Z,34.70
2018-07-26T08:20:09.369Z,35.28
2018-07-26T08:22:38.416Z,35.91
2018-07-26T08:25:08.543Z,35.97
2018-07-26T08:27:37.683Z,36.27
2018-07-26T08:30:09.996Z,37.05
2018-07-26T08:32:39.257Z,37.04
2018-07-26T08:35:08.495Z,36.98
2018-07-26T08:37:37.663Z,37.27
2018-07-26T08:40:06.987Z,37.35
2018-07-26T08:42:36.875Z,37.54
2018-07-26T08:45:06.102Z,37.92
2018-07-26T08:47:35.270Z,38.14
2018-07-26T08:50:05.639Z,38.05
2018-07-26T08:52:34.861Z,38.20
2018-07-26T08:55:04.011Z,38.18
2018-07-26T08:57:33.458Z,38.24
2018-07-26T09:00:02.701Z,38.53
2018-07-26T09:02:31.912Z,38.93
2018-07-26T09:05:01.124Z,38.77
2018-07-26T09:07:30.352Z,38.64
2018-07-26T09:09:59.639Z,38.88
2018-07-26T09:12:28.886Z,38.55
2018-07-26T09:14:58.115Z,38.71
2018-07-26T09:17:33.995Z,38.83
2018-07-26T09:20:03.294Z,38.85
2018-07-26T09:22:32.619Z,39.33
2018-07-26T09:25:01.808Z,39.90
2018-07-26T09:27:30.998Z,39.22
2018-07-26T09:30:00.222Z,39.60
2018-07-26T09:32:29.463Z,39.60
2018-07-26T09:34:58.701Z,39.12
2018-07-26T09:37:27.863Z,38.65
2018-07-26T09:39:57.058Z,40.02
2018-07-26T09:42:26.215Z,40.29
2018-07-26T09:44:55.352Z,39.95
2018-07-26T09:47:24.592Z,40.70
2018-07-26T09:49:53.716Z,40.17
2018-07-26T09:52:22.863Z,40.26
2018-07-26T09:54:52.009Z,40.85
2018-07-26T09:57:21.175Z,40.62
2018-07-26T09:59:50.321Z,40.95
2018-07-26T10:02:19.464Z,41.19
2018-07-26T10:04:48.631Z,39.82
2018-07-26T10:07:17.794Z,40.43
2018-07-26T10:09:46.918Z,40.52
2018-07-26T10:12:16.237Z,38.35
2018-07-26T10:14:45.427Z,39.99
2018-07-26T10:17:14.547Z,39.84
2018-07-26T10:19:43.835Z,40.03
2018-07-26T10:22:12.975Z,40.01
2018-07-26T10:24:42.186Z,39.30
2018-07-26T10:27:11.329Z,39.72
2018-07-26T10:29:40.462Z,38.70
2018-07-26T10:32:09.744Z,39.17
2018-07-26T10:34:39.083Z,38.29
2018-07-26T10:37:08.271Z,37.83
2018-07-26T10:39:37.416Z,39.11
2018-07-26T10:42:06.591Z,39.86
2018-07-26T10:44:35.791Z,39.84
2018-07-26T10:47:05.020Z,38.84
2018-07-26T10:49:34.218Z,39.92
2018-07-26T10:52:03.354Z,39.48
2018-07-26T10:54:32.558Z,39.67
2018-07-26T10:57:01.828Z,40.62
2018-07-26T10:59:30.956Z,40.26
2018-07-26T11:02:00.192Z,40.49
2018-07-26T11:04:29.420Z,40.82
2018-07-26T11:06:58.531Z,41.11
2018-07-26T11:09:27.759Z,39.34
2018-07-26T11:11:56.913Z,38.31
2018-07-26T11:14:26.048Z,39.36
2018-07-26T11:16:55.204Z,39.87
2018-07-26T11:19:24.347Z,40.47
2018-07-26T11:21:53.482Z,41.19
2018-07-26T11:24:22.615Z,41.29
2018-07-26T11:26:51.803Z,41.43
2018-07-26T11:29:21.516Z,40.91
2018-07-26T11:31:50.634Z,40.14
2018-07-26T11:34:20.429Z,39.85
2018-07-26T11:36:49.527Z,39.79
2018-07-26T11:39:18.723Z,40.39
2018-07-26T11:41:47.907Z,41.11
2018-07-26T11:44:17.062Z,41.13
2018-07-26T11:46:46.239Z,40.48
2018-07-26T11:49:15.526Z,40.86
2018-07-26T11:51:44.680Z,39.90
2018-07-26T11:54:13.919Z,38.32
2018-07-26T11:56:43.035Z,38.92
2018-07-26T11:59:12.212Z,40.20
2018-07-26T12:01:41.590Z,40.79
2018-07-26T12:04:10.639Z,41.43
2018-07-26T12:06:39.782Z,41.56
2018-07-26T12:09:10.600Z,40.90
2018-07-26T12:11:40.362Z,41.17
2018-07-26T12:14:10.378Z,40.34
2018-07-26T12:16:39.579Z,40.58
2018-07-26T12:19:08.879Z,40.44
2018-07-26T12:21:38.078Z,41.03
2018-07-26T12:24:07.286Z,41.74
2018-07-26T12:26:36.472Z,41.14
2018-07-26T12:29:05.602Z,41.04
2018-07-26T12:31:34.763Z,41.47
2018-07-26T12:34:03.904Z,40.97
2018-07-26T12:36:33.482Z,41.98
2018-07-26T12:39:02.619Z,39.56
2018-07-26T12:41:31.838Z,41.25
2018-07-26T12:44:00.924Z,41.68
2018-07-26T12:46:30.049Z,40.85
2018-07-26T12:48:59.191Z,41.49
2018-07-26T12:51:28.346Z,41.15
2018-07-26T12:53:57.591Z,40.38
2018-07-26T12:56:26.873Z,38.42
2018-07-26T12:58:56.215Z,39.88
2018-07-26T13:01:26.592Z,40.26
2018-07-26T13:03:56.785Z,40.50
2018-07-26T13:06:26.606Z,39.79
2018-07-26T13:08:56.600Z,40.05
2018-07-26T13:11:25.754Z,38.98
2018-07-26T13:13:55.016Z,39.72
2018-07-26T13:16:24.547Z,39.56
2018-07-26T13:18:53.697Z,40.03
2018-07-26T13:21:22.852Z,39.94
2018-07-26T13:23:52.140Z,39.43
2018-07-26T13:26:21.399Z,38.71
2018-07-26T13:28:50.561Z,38.64
2018-07-26T13:31:19.811Z,38.00
2018-07-26T13:33:48.953Z,37.86
2018-07-26T13:36:18.107Z,37.95
2018-07-26T13:38:47.295Z,37.77
2018-07-26T13:41:16.466Z,37.47
2018-07-26T13:43:45.663Z,37.56
2018-07-26T13:46:14.894Z,37.52
2018-07-26T13:48:44.064Z,37.98
2018-07-26T13:51:13.348Z,38.39
2018-07-26T13:53:42.775Z,38.31
2018-07-26T13:56:12.443Z,37.97
2018-07-26T13:58:41.881Z,37.79
2018-07-26T14:01:11.236Z,37.81
2018-07-26T14:03:40.407Z,37.56
2018-07-26T14:06:09.721Z,37.19
2018-07-26T14:08:38.918Z,37.15
2018-07-26T14:11:08.105Z,36.95
2018-07-26T14:13:37.272Z,37.12
2018-07-26T14:16:06.602Z,37.07
2018-07-26T14:18:35.774Z,37.14
2018-07-26T14:21:04.916Z,37.01
2018-07-26T14:23:38.567Z,37.05
2018-07-26T14:26:10.069Z,36.82
2018-07-26T14:28:39.332Z,36.68
2018-07-26T14:31:08.996Z,36.63
2018-07-26T14:33:38.383Z,36.14
2018-07-26T14:36:07.626Z,36.02
2018-07-26T14:38:36.759Z,35.94
2018-07-26T14:41:05.966Z,35.88
2018-07-26T14:43:35.170Z,35.80
2018-07-26T14:46:04.307Z,35.79
2018-07-26T14:48:33.336Z,35.88
2018-07-26T14:51:02.487Z,35.93
2018-07-26T14:53:31.665Z,35.70
2018-07-26T14:56:00.934Z,35.66
2018-07-26T14:58:30.338Z,35.60
2018-07-26T15:00:59.564Z,35.57
2018-07-26T15:03:28.739Z,35.71
2018-07-26T15:05:57.950Z,35.77
2018-07-26T15:08:27.121Z,35.83
2018-07-26T15:10:56.337Z,35.78
2018-07-26T15:13:25.574Z,35.87
2018-07-26T15:15:54.837Z,35.81
2018-07-26T15:18:24.092Z,35.86
2018-07-26T15:20:53.451Z,35.89
2018-07-26T15:23:22.745Z,36.04
2018-07-26T15:25:51.944Z,36.14
2018-07-26T15:28:21.080Z,36.30
2018-07-26T15:30:50.447Z,36.59
2018-07-26T15:33:19.579Z,36.64
2018-07-26T15:35:48.767Z,36.68
2018-07-26T15:38:18.059Z,36.84
2018-07-26T15:40:48.476Z,36.79
2018-07-26T15:43:17.569Z,36.21
2018-07-26T15:45:46.767Z,35.29
2018-07-26T15:48:15.968Z,34.44
2018-07-26T15:50:45.094Z,34.61
2018-07-26T15:53:14.220Z,34.30
2018-07-26T15:55:43.549Z,33.66
2018-07-26T15:58:12.587Z,33.32
2018-07-26T16:00:41.779Z,33.06
2018-07-26T16:03:11.014Z,33.36
2018-07-26T16:05:40.338Z,33.50
2018-07-26T16:08:09.698Z,33.65
2018-07-26T16:10:39.085Z,33.84
2018-07-26T16:13:08.381Z,33.97
2018-07-26T16:15:37.604Z,34.17
2018-07-26T16:18:06.916Z,34.19
2018-07-26T16:20:36.302Z,34.28
2018-07-26T16:23:05.711Z,34.42
2018-07-26T16:25:34.980Z,34.59
2018-07-26T16:28:04.496Z,34.85
2018-07-26T16:30:33.842Z,34.93
2018-07-26T16:33:03.343Z,34.94
2018-07-26T16:35:32.797Z,34.93
2018-07-26T16:38:02.288Z,34.96
2018-07-26T16:40:31.887Z,35.03
2018-07-26T16:43:01.251Z,35.02
2018-07-26T16:45:30.662Z,35.10
2018-07-26T16:47:59.971Z,35.09
2018-07-26T16:50:29.347Z,35.06
2018-07-26T16:52:58.550Z,35.00
2018-07-26T16:55:27.724Z,35.03
2018-07-26T16:57:56.967Z,34.94
2018-07-26T17:00:26.843Z,34.87
2018-07-26T17:02:56.250Z,34.77
2018-07-26T17:05:25.554Z,34.87
2018-07-26T17:07:54.787Z,34.87
2018-07-26T17:10:24.046Z,34.78
2018-07-26T17:12:53.332Z,34.80
2018-07-26T17:15:23.558Z,34.79
2018-07-26T17:17:52.707Z,34.80
2018-07-26T17:20:21.986Z,34.77
2018-07-26T17:22:51.408Z,34.74
2018-07-26T17:25:24.887Z,34.70
2018-07-26T17:27:55.592Z,34.64
2018-07-26T17:30:25.135Z,34.54
2018-07-26T17:32:55.348Z,34.46
2018-07-26T17:35:24.699Z,34.38
2018-07-26T17:37:54.029Z,34.30
2018-07-26T17:40:23.247Z,34.24
2018-07-26T17:42:52.664Z,34.15
2018-07-26T17:45:21.927Z,34.10
2018-07-26T17:47:51.258Z,34.06
2018-07-26T17:50:20.578Z,34.01
2018-07-26T17:55:47.207Z,33.85
2018-07-26T17:58:16.646Z,33.64
2018-07-26T18:00:46.751Z,33.56
2018-07-26T18:03:16.066Z,33.43
2018-07-26T18:05:45.422Z,33.30
2018-07-26T18:08:14.931Z,33.15
2018-07-26T18:10:44.323Z,33.10
2018-07-26T18:13:13.561Z,32.98
2018-07-26T18:15:42.936Z,32.87
2018-07-26T18:18:12.124Z,32.77
2018-07-26T18:20:41.446Z,32.64
2018-07-26T18:23:10.774Z,32.62
2018-07-26T18:25:40.322Z,32.67
2018-07-26T18:28:09.570Z,32.58
2018-07-26T18:30:39.086Z,32.46
2018-07-26T18:33:08.485Z,32.36
2018-07-26T18:35:37.666Z,32.28
2018-07-26T18:38:07.126Z,32.18
2018-07-26T18:40:36.431Z,32.14
2018-07-26T18:43:05.657Z,32.04
2018-07-26T18:45:34.906Z,31.99
2018-07-26T18:48:04.222Z,31.84
2018-07-26T18:50:33.612Z,31.80
2018-07-26T18:53:02.812Z,31.75
2018-07-26T18:55:32.068Z,31.71
2018-07-26T18:58:01.263Z,31.61
2018-07-26T19:00:30.439Z,31.56
2018-07-26T19:03:00.737Z,31.50
2018-07-26T19:05:30.025Z,31.42
2018-07-26T19:07:59.292Z,31.34
2018-07-26T19:10:28.628Z,31.28
2018-07-26T19:12:57.867Z,31.26
2018-07-26T19:15:27.187Z,31.29
2018-07-26T19:17:57.423Z,31.31
2018-07-26T19:20:26.573Z,31.29
2018-07-26T19:22:55.759Z,31.22
2018-07-26T19:25:25.063Z,31.17
2018-07-26T19:27:54.208Z,31.10
2018-07-26T19:30:23.726Z,31.05
2018-07-26T19:32:53.032Z,30.98
2018-07-26T19:35:22.375Z,30.91
2018-07-26T19:37:51.743Z,30.91
2018-07-26T19:40:20.842Z,30.89
2018-07-26T19:42:50.159Z,30.85
2018-07-26T19:45:19.449Z,30.77
2018-07-26T19:47:48.735Z,30.72
2018-07-26T19:50:17.951Z,30.68
2018-07-26T19:52:47.312Z,30.68
2018-07-26T19:55:16.655Z,30.60
2018-07-26T19:57:45.952Z,30.54
2018-07-26T20:00:15.296Z,30.48
2018-07-26T20:02:44.574Z,30.49
2018-07-26T20:05:13.964Z,30.48
2018-07-26T20:07:43.192Z,30.47
2018-07-26T20:10:13.645Z,30.47
2018-07-26T20:12:42.906Z,30.44
2018-07-26T20:15:12.082Z,30.42
2018-07-26T20:17:42.168Z,30.45
2018-07-26T20:20:12.194Z,30.41
2018-07-26T20:22:41.802Z,30.29
2018-07-26T20:25:11.166Z,30.22
2018-07-26T20:27:40.549Z,30.22
2018-07-26T20:30:10.833Z,30.22
2018-07-26T20:32:40.083Z,30.21
2018-07-26T20:35:09.727Z,30.15
2018-07-26T20:37:39.021Z,30.13
